Airport View

Enter AWOS ICAO identifier for current METAR.

ex. KFNL

KOJA 261935Z AUTO 33013G21KT 10SM SCT047 04/M06 A3044 RMK AO2

26 Feb 2020 19:58

Frequency: 118.575

Phone: 580-772-7020

Other Area AWOS: KCLK - KJWG - KCSM - KRQO

TAF KCSM 261720Z 2618/2718 34016G25KT P6SM SKC FM270000 34008KT P6SM SKC FM270400 16006KT P6SM SKC FM271000 21010KT P6SM SKC